Stephen Creek, Texas
Current Conditions -  °F | °C
As of 12:14 PM on Thursday 29 Jan 2015 (Local Time) from K6R3 Reporting Station
NA  
Wind Chill: 72°   Ceiling: NA
Heat Index: 72°   Visibility: 7mi
Dew Point: 61°   Wind: 10mph
Humidity: 69%   Direction: 230°SW
Pressure: 30.24"   Gusts: 18mph
Location:  30.5835°N, 95.1294°W
Report Text: K6R3 291814Z AUTO 23009G16KT 7SM 22/16 A3024 RMK AO2
Loading
Personal Weather Stations






























Interactive Weather Map New forecast layout! Learn more

10-Day Weather Forecast

Advertisements
Track Severe Weather on mobile